| time (UTC) | temp C | wind direction | speed KPH | gust KPH | rain 1hr cm | rain 24hr cm | rain mn cm | humidity % | barometer mb |
| 20260504190043 | 26 | 162 | 1.6 | 6.4 | 0.00 | 0.00 | 0.00 | 42 | 1016.0 |
| 20260504184550 | 26 | 297 | 3.2 | 9.7 | 0.00 | 0.00 | 0.00 | 40 | 1016.2 |
| 20260504183038 | 26 | 27 | 3.2 | 6.4 | 0.00 | 0.00 | 0.00 | 44 | 1016.4 |
| 20260504181538 | 26 | 62 | 3.2 | 6.4 | 0.00 | 0.00 | 0.00 | 41 | 1016.5 |
| 20260504180037 | 26 | 203 | 1.6 | 6.4 | 0.00 | 0.00 | 0.00 | 42 | 1016.7 |
| 20260504174543 | 25 | 66 | 6.4 | 9.7 | 0.00 | 0.00 | 0.00 | 42 | 1016.8 |
| 20260504173038 | 25 | 202 | 1.6 | 8.0 | 0.00 | 0.00 | 0.00 | 44 | 1017.2 |
| 20260504171540 | 24 | 59 | 3.2 | 4.8 | 0.00 | 0.00 | 0.00 | 45 | 1017.4 |
| 20260504081538 | 7 | 0 | 0.0 | 0.0 | 0.00 | 0.00 | 0.00 | 97 | 1017.9 |
| 20260504044543 | 10 | 0 | 0.0 | 0.0 | 0.00 | 0.00 | 0.00 | 95 | 1019.1 |
| 20260504043042 | 10 | 0 | 0.0 | 0.0 | 0.00 | 0.00 | 0.00 | 94 | 1019.2 |
| 20260504041538 | 10 | 0 | 0.0 | 0.0 | 0.00 | 0.00 | 0.00 | 93 | 1019.3 |
| 20260504040040 | 10 | 0 | 0.0 | 0.0 | 0.00 | 0.00 | 0.00 | 92 | 1019.3 |
| 20260504034554 | 11 | 0 | 0.0 | 0.0 | 0.00 | 0.00 | 0.00 | 92 | 1019.2 |
| 20260504033055 | 11 | 0 | 0.0 | 0.0 | 0.00 | 0.00 | 0.00 | 90 | 1019.1 |
| 20260504031558 | 11 | 0 | 0.0 | 0.0 | 0.00 | 0.00 | 0.00 | 90 | 1019.1 |
| 20260504030042 | 11 | 0 | 0.0 | 0.0 | 0.00 | 0.00 | 0.00 | 90 | 1018.9 |
| 20260504024550 | 11 | 0 | 0.0 | 0.0 | 0.00 | 0.00 | 0.00 | 85 | 1018.8 |
| 20260504023044 | 12 | 0 | 0.0 | 0.0 | 0.00 | 0.00 | 0.00 | 86 | 1019.0 |
| 20260504021540 | 12 | 0 | 0.0 | 0.0 | 0.00 | 0.00 | 0.00 | 83 | 1018.8 |
| 20260504020038 | 12 | 0 | 0.0 | 0.0 | 0.00 | 0.00 | 0.00 | 79 | 1018.6 |
| 20260504014551 | 13 | 0 | 0.0 | 0.0 | 0.00 | 0.00 | 0.00 | 76 | 1018.5 |
| 20260504013045 | 13 | 0 | 0.0 | 0.0 | 0.00 | 0.00 | 0.00 | 74 | 1018.4 |
| 20260504011542 | 15 | 0 | 0.0 | 0.0 | 0.00 | 0.00 | 0.00 | 72 | 1018.2 |
| 20260504010043 | 15 | 0 | 0.0 | 0.0 | 0.00 | 0.00 | 0.00 | 73 | 1017.9 |
| 20260504004540 | 16 | 0 | 0.0 | 0.0 | 0.00 | 0.00 | 0.00 | 65 | 1017.9 |
| 20260504003042 | 17 | 0 | 0.0 | 0.0 | 0.00 | 0.00 | 0.00 | 61 | 1017.7 |
| 20260504001537 | 18 | 0 | 0.0 | 0.0 | 0.00 | 0.00 | 0.00 | 57 | 1017.5 |
| 20260504000104 | 19 | 0 | 0.0 | 0.0 | 0.00 | 0.00 | 0.00 | 53 | 1017.5 |
| 20260503234539 | 20 | 0 | 0.0 | 4.8 | 0.00 | 0.00 | 0.00 | 53 | 1017.5 |
| 20260503233041 | 21 | 0 | 0.0 | 4.8 | 0.00 | 0.00 | 0.00 | 47 | 1017.5 |
| 20260503231546 | 21 | 102 | 0.0 | 4.8 | 0.00 | 0.00 | 0.00 | 46 | 1017.5 |
| 20260503230044 | 22 | 1 | 0.0 | 3.2 | 0.00 | 0.00 | 0.00 | 45 | 1017.5 |
| 20260503224542 | 22 | 328 | 0.0 | 4.8 | 0.00 | 0.00 | 0.00 | 42 | 1017.3 |
| 20260503223039 | 23 | 357 | 0.0 | 11.3 | 0.00 | 0.00 | 0.00 | 41 | 1017.5 |
| 20260503221540 | 23 | 358 | 0.0 | 4.8 | 0.00 | 0.00 | 0.00 | 38 | 1017.5 |
| 20260503220045 | 23 | 143 | 1.6 | 9.7 | 0.00 | 0.00 | 0.00 | 41 | 1017.7 |
| 20260503214541 | 23 | 244 | 3.2 | 11.3 | 0.00 | 0.00 | 0.00 | 39 | 1017.8 |
| 20260503213038 | 23 | 79 | 3.2 | 12.9 | 0.00 | 0.00 | 0.00 | 38 | 1017.9 |
| 20260503211537 | 23 | 356 | 3.2 | 9.7 | 0.00 | 0.00 | 0.00 | 37 | 1017.9 |
| 20260503210044 | 23 | 252 | 3.2 | 12.9 | 0.00 | 0.00 | 0.00 | 39 | 1017.9 |
| 20260503204544 | 23 | 43 | 6.4 | 14.5 | 0.00 | 0.00 | 0.00 | 42 | 1017.9 |
| 20260503203042 | 23 | 290 | 1.6 | 12.9 | 0.00 | 0.00 | 0.00 | 41 | 1018.4 |
| 20260503201538 | 23 | 354 | 1.6 | 12.9 | 0.00 | 0.00 | 0.00 | 39 | 1018.4 |
| 20260503200045 | 24 | 219 | 1.6 | 11.3 | 0.00 | 0.00 | 0.00 | 42 | 1018.7 |
| 20260503194547 | 23 | 318 | 4.8 | 14.5 | 0.00 | 0.00 | 0.00 | 42 | 1019.1 |
| 20260503193044 | 24 | 29 | 3.2 | 12.9 | 0.00 | 0.00 | 0.00 | 41 | 1019.3 |
| 20260503191540 | 23 | 257 | 4.8 | 16.1 | 0.00 | 0.00 | 0.00 | 43 | 1019.6 |